Costa Atlantica — IBLQ — position and weather

sailwx.info

Track history (hours):
 
Tides and Currents Weather Stations Pressure Air Temp Water Temp Dewpoint Dewpoint Depression Visibility Wind Speed Wind Dir Waves Ship Positions

Costa Atlantica (Italy)

Last reported at 2018-Nov-11 02:28 UTC. Time now 2018-Nov-14 02:25 UTC.
Position N 23°45' E 118°16'.

Length 292 m; draft 8 m.

Type: Ship. MMSI: 247595017.

Date/timePositionNaut miles runAvg speedWind from/ knotsBaromVisibWave heightAir tempDewpointWater temp
2018-Nov-11 02:28N 23°45' E 118°16'  
2018-Nov-07 11:31N 23°16' E 117°46'1219.3
2018-Nov-07 10:53N 23°24' E 117°56'718.8
2018-Nov-07 10:32N 23°28' E 118°02'917.7
2018-Nov-07 10:02N 23°34' E 118°09'917.3
2018-Nov-07 09:33N 23°41' E 118°15'918.2
2018-Nov-07 09:02N 23°50' E 118°18'918.4
2018-Nov-07 08:32N 23°59' E 118°21'918.2
2018-Nov-07 08:02N 24°08' E 118°20'917.6
2018-Nov-07 07:32N 24°15' E 118°15'815.8
2018-Nov-07 07:02N 24°21' E 118°09'713.9
2018-Nov-07 06:33N 24°26' E 118°04'4 7.3
2018-Nov-07 06:02N 24°29' E 118°04'0 0.0
2018-Nov-07 05:32N 24°29' E 118°04'0 0.1
2018-Nov-07 05:02N 24°29' E 118°04'0 0.1
2018-Nov-07 04:32N 24°29' E 118°04'0 0.0
2018-Nov-06 23:30N 24°29' E 118°04'0 0.0
2018-Nov-06 23:03N 24°29' E 118°04'0 0.0
2018-Nov-06 23:00N 24°29' E 118°04'1 1.4
2018-Nov-06 22:00N 24°28' E 118°03'510.9
2018-Nov-06 21:31N 24°24' E 118°07'612.3
2018-Nov-06 21:03N 24°20' E 118°11'112.5
2018-Nov-06 21:00N 24°19' E 118°11'713.3
2018-Nov-06 20:31N 24°14' E 118°16'715.2
2018-Nov-06 20:03N 24°11' E 118°22'116.6
2018-Nov-06 20:00N 24°11' E 118°23'817.0
2018-Nov-06 19:31N 24°12' E 118°32'1917.4
2018-Nov-06 18:24N 24°17' E 118°53'15516.7
2018-Nov-06 09:05N 25°22' E 121°28'218.3
2018-Nov-06 08:58N 25°23' E 121°30'917.8
2018-Nov-06 08:27N 25°23' E 121°40'716.9
2018-Nov-06 08:00N 25°22' E 121°49'815.9
2018-Nov-06 07:29N 25°20' E 121°58'614.6
2018-Nov-06 07:02N 25°20' E 122°05'114.5
2018-Nov-06 06:59N 25°20' E 122°06'815.7
2018-Nov-06 06:29N 25°19' E 122°14'715.8
2018-Nov-06 06:03N 25°18' E 122°22'114.8
2018-Nov-06 05:57N 25°18' E 122°23'815.3
2018-Nov-06 05:27N 25°16' E 122°32'  
2018-Nov-04 01:07N 25°20' E 122°03'213.3
2018-Nov-04 01:00N 25°20' E 122°01'713.3
2018-Nov-04 00:29N 25°21' E 121°54'612.9
2018-Nov-04 00:03N 25°22' E 121°48'113.2
2018-Nov-03 23:57N 25°22' E 121°46'713.6
2018-Nov-03 23:26N 25°23' E 121°38'817.3
2018-Nov-03 23:00N 25°22' E 121°30'1216.9
2018-Nov-03 22:18N 25°20' E 121°17'16516.9
2018-Nov-03 12:34N 24°13' E 118°31'116.5
2018-Nov-03 12:29N 24°13' E 118°30'716.6
2018-Nov-03 12:03N 24°12' E 118°22'116.6
2018-Nov-03 12:00N 24°12' E 118°21'714.8
2018-Nov-03 11:30N 24°16' E 118°14'612.4
2018-Nov-03 11:03N 24°20' E 118°10'111.4
2018-Nov-03 11:00N 24°21' E 118°10'611.8
2018-Nov-03 10:30N 24°25' E 118°05'4 9.3
2018-Nov-03 10:03N 24°28' E 118°03'0 8.6
2018-Nov-03 10:00N 24°29' E 118°04'1 1.3
2018-Nov-03 09:30N 24°29' E 118°04'0 0.0
2018-Nov-03 09:03N 24°29' E 118°04'0 1.0
2018-Nov-03 09:00N 24°29' E 118°04'0 0.1
2018-Nov-03 08:30N 24°29' E 118°04'0 0.0
2018-Nov-03 08:03N 24°29' E 118°04'0 0.0
2018-Nov-03 08:00N 24°29' E 118°04'0 0.0
2018-Nov-03 07:30N 24°29' E 118°04'0 0.0
2018-Nov-03 07:03N 24°29' E 118°04'0 0.0
2018-Nov-03 07:00N 24°29' E 118°04'0 0.0
2018-Nov-03 06:30N 24°29' E 118°04'0 0.0
2018-Nov-03 06:03N 24°29' E 118°04'0 0.0
2018-Nov-03 06:00N 24°29' E 118°04'0 0.0
2018-Nov-03 05:30N 24°29' E 118°04'0 0.0
2018-Nov-03 05:03N 24°29' E 118°04'0 0.1
2018-Nov-03 05:00N 24°29' E 118°04'0 0.0
2018-Nov-03 04:30N 24°29' E 118°04'0 0.0
2018-Nov-03 04:03N 24°29' E 118°04'0 0.0
2018-Nov-03 04:00N 24°29' E 118°04'0 0.0
2018-Nov-03 03:30N 24°29' E 118°04'0 0.0
2018-Nov-03 03:03N 24°29' E 118°04'0 0.0
2018-Nov-03 03:00N 24°29' E 118°04'0 0.0
2018-Nov-03 02:30N 24°29' E 118°04'1 2.4
2018-Nov-03 02:03N 24°28' E 118°03'0 7.8
2018-Nov-03 02:00N 24°28' E 118°03'510.2
2018-Nov-03 01:30N 24°24' E 118°06'612.6
2018-Nov-03 01:03N 24°20' E 118°11'114.6
2018-Nov-03 01:00N 24°19' E 118°11'714.5
2018-Nov-03 00:30N 24°14' E 118°16'613.9
2018-Nov-03 00:03N 24°10' E 118°22'116.1
2018-Nov-03 00:00N 24°10' E 118°23'917.0
2018-Nov-02 23:30N 24°13' E 118°31'816.5
2018-Nov-02 23:03N 24°14' E 118°40'115.9
2018-Nov-02 23:00N 24°14' E 118°40'1115.7
2018-Nov-02 22:18N 24°16' E 118°52'15614.2
2018-Nov-02 11:18N 25°22' E 121°28'413.2
2018-Nov-02 11:00N 25°23' E 121°33'813.5
2018-Nov-02 10:26N 25°23' E 121°41'614.7
2018-Nov-02 10:00N 25°22' E 121°48'815.1
2018-Nov-02 09:29N 25°21' E 121°57'715.0
2018-Nov-02 09:02N 25°20' E 122°04'114.5
2018-Nov-02 08:57N 25°20' E 122°05'815.1
2018-Nov-02 08:26N 25°19' E 122°14'714.5
2018-Nov-02 07:59N 25°18' E 122°21'1013.7
2018-Nov-02 07:17N 25°17' E 122°31'413.2
2018-Nov-02 06:57N 25°16' E 122°36'  
Track history (hours):
 
Tides and Currents Weather Stations Pressure Air Temp Water Temp Dewpoint Dewpoint Depression Visibility Wind Speed Wind Dir Waves Ship Positions

Costa Atlantica (Italy)

Last reported at 2018-Nov-11 02:28 UTC. Time now 2018-Nov-14 02:25 UTC.
Position N 23°45' E 118°16'.

Length 292 m; draft 8 m.

Type: Ship. MMSI: 247595017.

Date/timePositionNaut miles runAvg speedWind from/ knotsBaromVisibWave heightAir tempDewpointWater temp
2018-Nov-11 02:28N 23°45' E 118°16'  
2018-Nov-07 11:31N 23°16' E 117°46'1219.3
2018-Nov-07 10:53N 23°24' E 117°56'718.8
2018-Nov-07 10:32N 23°28' E 118°02'917.7
2018-Nov-07 10:02N 23°34' E 118°09'917.3
2018-Nov-07 09:33N 23°41' E 118°15'918.2
2018-Nov-07 09:02N 23°50' E 118°18'918.4
2018-Nov-07 08:32N 23°59' E 118°21'918.2
2018-Nov-07 08:02N 24°08' E 118°20'917.6
2018-Nov-07 07:32N 24°15' E 118°15'815.8
2018-Nov-07 07:02N 24°21' E 118°09'713.9
2018-Nov-07 06:33N 24°26' E 118°04'4 7.3
2018-Nov-07 06:02N 24°29' E 118°04'0 0.0
2018-Nov-07 05:32N 24°29' E 118°04'0 0.1
2018-Nov-07 05:02N 24°29' E 118°04'0 0.1
2018-Nov-07 04:32N 24°29' E 118°04'0 0.0
2018-Nov-06 23:30N 24°29' E 118°04'0 0.0
2018-Nov-06 23:03N 24°29' E 118°04'0 0.0
2018-Nov-06 23:00N 24°29' E 118°04'1 1.4
2018-Nov-06 22:00N 24°28' E 118°03'510.9
2018-Nov-06 21:31N 24°24' E 118°07'612.3
2018-Nov-06 21:03N 24°20' E 118°11'112.5
2018-Nov-06 21:00N 24°19' E 118°11'713.3
2018-Nov-06 20:31N 24°14' E 118°16'715.2
2018-Nov-06 20:03N 24°11' E 118°22'116.6
2018-Nov-06 20:00N 24°11' E 118°23'817.0
2018-Nov-06 19:31N 24°12' E 118°32'1917.4
2018-Nov-06 18:24N 24°17' E 118°53'15516.7
2018-Nov-06 09:05N 25°22' E 121°28'218.3
2018-Nov-06 08:58N 25°23' E 121°30'917.8
2018-Nov-06 08:27N 25°23' E 121°40'716.9
2018-Nov-06 08:00N 25°22' E 121°49'815.9
2018-Nov-06 07:29N 25°20' E 121°58'614.6
2018-Nov-06 07:02N 25°20' E 122°05'114.5
2018-Nov-06 06:59N 25°20' E 122°06'815.7
2018-Nov-06 06:29N 25°19' E 122°14'715.8
2018-Nov-06 06:03N 25°18' E 122°22'114.8
2018-Nov-06 05:57N 25°18' E 122°23'815.3
2018-Nov-06 05:27N 25°16' E 122°32'  
2018-Nov-04 01:07N 25°20' E 122°03'213.3
2018-Nov-04 01:00N 25°20' E 122°01'713.3
2018-Nov-04 00:29N 25°21' E 121°54'612.9
2018-Nov-04 00:03N 25°22' E 121°48'113.2
2018-Nov-03 23:57N 25°22' E 121°46'713.6
2018-Nov-03 23:26N 25°23' E 121°38'817.3
2018-Nov-03 23:00N 25°22' E 121°30'1216.9
2018-Nov-03 22:18N 25°20' E 121°17'16516.9
2018-Nov-03 12:34N 24°13' E 118°31'116.5
2018-Nov-03 12:29N 24°13' E 118°30'716.6
2018-Nov-03 12:03N 24°12' E 118°22'116.6
2018-Nov-03 12:00N 24°12' E 118°21'714.8
2018-Nov-03 11:30N 24°16' E 118°14'612.4
2018-Nov-03 11:03N 24°20' E 118°10'111.4
2018-Nov-03 11:00N 24°21' E 118°10'611.8
2018-Nov-03 10:30N 24°25' E 118°05'4 9.3
2018-Nov-03 10:03N 24°28' E 118°03'0 8.6
2018-Nov-03 10:00N 24°29' E 118°04'1 1.3
2018-Nov-03 09:30N 24°29' E 118°04'0 0.0
2018-Nov-03 09:03N 24°29' E 118°04'0 1.0
2018-Nov-03 09:00N 24°29' E 118°04'0 0.1
2018-Nov-03 08:30N 24°29' E 118°04'0 0.0
2018-Nov-03 08:03N 24°29' E 118°04'0 0.0
2018-Nov-03 08:00N 24°29' E 118°04'0 0.0
2018-Nov-03 07:30N 24°29' E 118°04'0 0.0
2018-Nov-03 07:03N 24°29' E 118°04'0 0.0
2018-Nov-03 07:00N 24°29' E 118°04'0 0.0
2018-Nov-03 06:30N 24°29' E 118°04'0 0.0
2018-Nov-03 06:03N 24°29' E 118°04'0 0.0
2018-Nov-03 06:00N 24°29' E 118°04'0 0.0
2018-Nov-03 05:30N 24°29' E 118°04'0 0.0
2018-Nov-03 05:03N 24°29' E 118°04'0 0.1
2018-Nov-03 05:00N 24°29' E 118°04'0 0.0
2018-Nov-03 04:30N 24°29' E 118°04'0 0.0
2018-Nov-03 04:03N 24°29' E 118°04'0 0.0
2018-Nov-03 04:00N 24°29' E 118°04'0 0.0
2018-Nov-03 03:30N 24°29' E 118°04'0 0.0
2018-Nov-03 03:03N 24°29' E 118°04'0 0.0
2018-Nov-03 03:00N 24°29' E 118°04'0 0.0
2018-Nov-03 02:30N 24°29' E 118°04'1 2.4
2018-Nov-03 02:03N 24°28' E 118°03'0 7.8
2018-Nov-03 02:00N 24°28' E 118°03'510.2
2018-Nov-03 01:30N 24°24' E 118°06'612.6
2018-Nov-03 01:03N 24°20' E 118°11'114.6
2018-Nov-03 01:00N 24°19' E 118°11'714.5
2018-Nov-03 00:30N 24°14' E 118°16'613.9
2018-Nov-03 00:03N 24°10' E 118°22'116.1
2018-Nov-03 00:00N 24°10' E 118°23'917.0
2018-Nov-02 23:30N 24°13' E 118°31'816.5
2018-Nov-02 23:03N 24°14' E 118°40'115.9
2018-Nov-02 23:00N 24°14' E 118°40'1115.7
2018-Nov-02 22:18N 24°16' E 118°52'15614.2
2018-Nov-02 11:18N 25°22' E 121°28'413.2
2018-Nov-02 11:00N 25°23' E 121°33'813.5
2018-Nov-02 10:26N 25°23' E 121°41'614.7
2018-Nov-02 10:00N 25°22' E 121°48'815.1
2018-Nov-02 09:29N 25°21' E 121°57'715.0
2018-Nov-02 09:02N 25°20' E 122°04'114.5
2018-Nov-02 08:57N 25°20' E 122°05'815.1
2018-Nov-02 08:26N 25°19' E 122°14'714.5
2018-Nov-02 07:59N 25°18' E 122°21'1013.7
2018-Nov-02 07:17N 25°17' E 122°31'413.2
2018-Nov-02 06:57N 25°16' E 122°36'  

Dump ship's entire track history